Time;durP1;ratioP1;P1;durP2;ratioP2;P2;SDS_P1;SDS_P2;PMS_P1;PMS_P2;Temp;Humidity;BMP_temperature;BMP_pressure;BME280_temperature;BME280_humidity;BME280_pressure;Samples;Min_cycle;Max_cycle;Signal;HPM_P1;HPM_P2
2020/12/10 00:01:12;;;;;;;;;37.33;36.67;;;;;11.97;74.62;100064.38;5041441;28;8829;-69
2020/12/10 00:03:39;;;;;;;;;37.33;32.33;;;;;11.95;75.21;100069.63;5042255;28;8874;-70
2020/12/10 00:06:05;;;;;;;;;33.67;29.00;;;;;11.99;75.08;100060.00;5040672;28;9490;-68
2020/12/10 00:08:32;;;;;;;;;44.33;39.33;;;;;12.15;74.31;100059.13;5042797;28;9625;-70
2020/12/10 00:10:58;;;;;;;;;40.00;37.00;;;;;12.20;73.83;100054.75;5040440;28;8939;-69
2020/12/10 00:13:24;;;;;;;;;40.67;37.00;;;;;12.15;74.07;100046.00;5042923;28;8834;-69
2020/12/10 00:15:51;;;;;;;;;41.33;36.67;;;;;12.16;74.40;100050.38;5040786;28;8947;-70
2020/12/10 00:18:17;;;;;;;;;43.33;38.00;;;;;12.08;75.00;100054.75;5041909;28;8833;-69
2020/12/10 00:20:43;;;;;;;;;49.00;39.00;;;;;12.26;73.58;100065.22;5041362;28;8916;-68
2020/12/10 00:23:09;;;;;;;;;42.00;37.67;;;;;12.27;73.60;100061.72;5041303;28;8836;-69
2020/12/10 00:25:36;;;;;;;;;46.67;40.33;;;;;12.29;73.83;100070.50;5042337;28;8842;-68
2020/12/10 00:28:03;;;;;;;;;46.00;41.67;;;;;12.33;73.96;100064.34;5040200;28;8821;-69
2020/12/10 00:30:29;;;;;;;;;50.00;41.33;;;;;12.22;74.24;100058.22;5043221;28;8819;-69
2020/12/10 00:32:55;;;;;;;;;48.00;41.00;;;;;12.19;74.11;100058.25;5038686;28;8813;-69
2020/12/10 00:35:22;;;;;;;;;49.33;42.67;;;;;12.27;73.80;100056.47;5043638;28;9018;-70
2020/12/10 00:37:48;;;;;;;;;49.33;40.67;;;;;12.31;73.97;100058.22;5039557;28;8827;-70
2020/12/10 00:40:14;;;;;;;;;48.67;41.00;;;;;12.27;74.34;100061.72;5039367;28;8906;-70
2020/12/10 00:42:41;;;;;;;;;47.67;42.00;;;;;12.28;73.82;100059.09;5040855;28;8836;-70
2020/12/10 00:45:09;;;;;;;;;55.00;45.67;;;;;12.02;74.35;100063.50;5042920;28;8928;-70
2020/12/10 00:47:35;;;;;;;;;46.67;38.00;;;;;11.95;74.96;100068.75;5041992;28;8970;-70
2020/12/10 00:50:01;;;;;;;;;52.67;43.33;;;;;11.73;75.52;100069.63;5039413;28;8853;-70
2020/12/10 00:52:28;;;;;;;;;51.33;42.33;;;;;11.29;77.11;100073.88;5042656;28;8843;-70
2020/12/10 00:54:54;;;;;;;;;42.67;39.67;;;;;11.99;74.94;100060.00;5039354;28;8825;-70
2020/12/10 00:57:21;;;;;;;;;51.67;41.00;;;;;11.92;75.11;100068.75;5041952;28;8878;-69
2020/12/10 00:59:50;;;;;;;;;48.67;40.33;;;;;12.04;73.86;100060.88;5040372;28;8830;-69
2020/12/10 01:02:16;;;;;;;;;45.33;37.33;;;;;12.13;74.21;100063.50;5041095;28;8844;-69
2020/12/10 01:04:43;;;;;;;;;46.67;38.67;;;;;11.75;75.18;100070.50;5039655;28;8838;-69
2020/12/10 01:07:09;;;;;;;;;46.67;41.00;;;;;11.78;75.13;100083.63;5040206;28;8841;-69
2020/12/10 01:09:35;;;;;;;;;43.33;39.00;;;;;11.58;76.04;100082.66;5041202;28;8863;-70
2020/12/10 01:12:03;;;;;;;;;35.67;32.00;;;;;11.94;75.41;100082.75;5040882;28;8922;-69
2020/12/10 01:14:29;;;;;;;;;42.00;37.33;;;;;12.00;74.42;100077.50;5042213;28;8858;-69
2020/12/10 01:16:57;;;;;;;;;42.33;35.00;;;;;11.95;75.12;100079.25;5039079;28;8991;-69
2020/12/10 01:19:23;;;;;;;;;46.00;40.67;;;;;11.65;75.29;100079.25;5041764;28;9507;-69
2020/12/10 01:21:49;;;;;;;;;45.00;40.33;;;;;11.74;75.53;100084.47;5042165;28;8896;-69
2020/12/10 01:24:15;;;;;;;;;43.67;38.67;;;;;11.99;74.85;100086.25;5039886;28;8835;-69
2020/12/10 01:26:44;;;;;;;;;41.67;39.00;;;;;12.04;73.96;100079.25;5040288;28;8865;-69
2020/12/10 01:29:10;;;;;;;;;46.33;39.00;;;;;12.07;74.36;100079.22;5040697;28;8823;-69
2020/12/10 01:31:36;;;;;;;;;46.00;40.67;;;;;11.83;74.38;100084.50;5040869;28;8939;-71
2020/12/10 01:34:03;;;;;;;;;46.00;38.00;;;;;11.96;74.05;100081.88;5039227;28;8983;-70
2020/12/10 01:36:31;;;;;;;;;47.33;40.67;;;;;11.71;74.95;100079.25;5041876;28;8859;-69
2020/12/10 01:38:57;;;;;;;;;45.33;41.33;;;;;11.69;76.20;100076.63;5039427;28;8886;-68
2020/12/10 01:41:29;;;;;;;;;49.33;42.00;;;;;11.68;75.46;100084.47;5035142;28;8827;-68
2020/12/10 01:44:04;;;;;;;;;43.33;40.00;;;;;11.73;75.57;100074.88;5042671;28;8854;-69
2020/12/10 01:46:31;;;;;;;;;51.33;40.33;;;;;11.75;75.38;100081.00;5023223;28;8854;-68
2020/12/10 01:48:57;;;;;;;;;50.00;40.00;;;;;11.71;75.40;100085.34;5038609;28;8881;-68
2020/12/10 01:51:24;;;;;;;;;41.33;37.67;;;;;11.75;75.39;100081.00;5037900;28;8902;-67
2020/12/10 01:53:51;;;;;;;;;51.00;41.00;;;;;11.66;75.35;100083.59;5041395;28;8912;-68
2020/12/10 01:56:17;;;;;;;;;47.00;40.00;;;;;11.58;75.85;100082.66;5040361;28;8895;-69
2020/12/10 01:58:45;;;;;;;;;20.00;17.67;;;;;11.63;75.87;100075.72;5037538;28;8861;-68
2020/12/10 02:01:13;;;;;;;;;49.33;43.33;;;;;11.35;76.64;100069.53;5040841;28;9083;-69
2020/12/10 02:03:39;;;;;;;;;46.67;38.67;;;;;11.29;76.43;100068.66;5040130;28;8880;-68
2020/12/10 02:06:05;;;;;;;;;39.67;36.00;;;;;11.42;76.37;100073.03;5038752;28;8825;-68
2020/12/10 02:08:33;;;;;;;;;43.33;37.00;;;;;11.43;76.78;100072.19;5038309;28;8841;-68
2020/12/10 02:10:59;;;;;;;;;38.33;32.00;;;;;11.57;76.08;100066.09;5023273;28;8838;-69
2020/12/10 02:13:25;;;;;;;;;40.67;36.00;;;;;11.58;75.96;100066.94;5033984;28;8829;-69
2020/12/10 02:15:52;;;;;;;;;38.67;36.33;;;;;11.61;75.42;100072.25;5038209;28;9541;-68
2020/12/10 02:18:18;;;;;;;;;36.33;34.67;;;;;11.65;75.98;100063.50;5038257;28;8860;-69
2020/12/10 02:20:46;;;;;;;;;34.67;31.33;;;;;11.66;75.89;100060.84;5036997;28;8951;-69
2020/12/10 02:23:13;;;;;;;;;33.00;31.33;;;;;11.61;75.33;100051.25;5039534;28;8930;-69
2020/12/10 02:25:39;;;;;;;;;30.33;29.67;;;;;11.61;75.49;100061.75;5039858;28;8919;-70
2020/12/10 02:28:09;;;;;;;;;39.67;37.00;;;;;11.68;75.38;100063.50;5038983;28;8829;-70
2020/12/10 02:30:36;;;;;;;;;35.67;32.67;;;;;11.58;75.41;100061.69;5039989;28;8831;-69
2020/12/10 02:33:05;;;;;;;;;37.00;35.33;;;;;11.63;75.52;100054.75;5038079;28;8939;-69
2020/12/10 02:35:33;;;;;;;;;37.33;35.33;;;;;11.56;75.74;100063.44;5040871;28;8835;-69
2020/12/10 02:38:02;;;;;;;;;31.33;30.00;;;;;11.68;75.62;100053.00;5037807;28;8848;-70
2020/12/10 02:40:31;;;;;;;;;32.00;31.33;;;;;11.62;76.53;100063.50;5041186;28;8927;-69
2020/12/10 02:42:58;;;;;;;;;40.33;36.33;;;;;11.64;76.48;100046.00;5041357;28;8823;-69
2020/12/10 02:45:25;;;;;;;;;41.67;37.00;;;;;11.77;75.83;100053.00;5036912;28;9652;-70
2020/12/10 02:47:52;;;;;;;;;40.00;35.33;;;;;11.78;75.71;100050.41;5038107;28;9569;-70
2020/12/10 02:50:18;;;;;;;;;34.67;31.67;;;;;11.82;75.69;100054.75;5039960;28;8845;-68
2020/12/10 02:52:44;;;;;;;;;34.00;30.67;;;;;11.78;76.01;100033.78;5038943;28;8921;-69
2020/12/10 02:55:10;;;;;;;;;40.67;38.67;;;;;11.41;76.61;100047.69;5039044;28;8876;-70
2020/12/10 02:57:38;;;;;;;;;41.00;39.33;;;;;11.51;76.35;100038.97;5043253;28;8854;-69
2020/12/10 03:00:06;;;;;;;;;37.67;35.33;;;;;11.75;75.68;100033.78;5042092;28;8845;-69
2020/12/10 03:02:32;;;;;;;;;39.00;36.00;;;;;11.84;75.41;100033.78;5043932;28;8944;-70
2020/12/10 03:04:59;;;;;;;;;37.00;35.00;;;;;11.88;75.45;100030.28;5041361;28;8817;-69
2020/12/10 03:07:25;;;;;;;;;33.00;32.00;;;;;11.88;75.14;100035.53;5044532;28;8823;-69
2020/12/10 03:09:52;;;;;;;;;28.67;27.67;;;;;11.79;75.70;100025.03;5041237;28;8830;-69
2020/12/10 03:12:18;;;;;;;;;37.67;33.33;;;;;11.81;75.28;100028.53;5043655;28;8835;-71
2020/12/10 03:14:45;;;;;;;;;34.67;33.33;;;;;11.74;75.71;100011.03;5042268;28;8850;-70
2020/12/10 03:17:11;;;;;;;;;32.00;30.33;;;;;11.88;75.91;100025.03;5043153;28;8933;-71
2020/12/10 03:19:37;;;;;;;;;35.00;33.00;;;;;11.82;75.97;100017.16;5042835;28;8951;-71
2020/12/10 03:22:04;;;;;;;;;35.00;32.00;;;;;11.82;75.93;100014.53;5041735;28;8837;-70
2020/12/10 03:24:30;;;;;;;;;32.33;27.33;;;;;11.81;75.74;100018.06;5043922;28;8862;-70
2020/12/10 03:26:57;;;;;;;;;40.00;36.67;;;;;11.76;75.88;100014.56;5039638;28;8868;-70
2020/12/10 03:29:23;;;;;;;;;38.00;36.67;;;;;11.83;75.81;100022.44;5036438;28;8829;-70
2020/12/10 03:31:51;;;;;;;;;41.00;35.67;;;;;11.77;76.21;100021.53;5043840;28;9586;-70
2020/12/10 03:34:19;;;;;;;;;30.33;29.00;;;;;11.26;77.83;100027.59;5041275;28;8897;-70
2020/12/10 03:36:48;;;;;;;;;39.67;36.00;;;;;11.19;78.13;100022.31;5042975;28;8848;-70
2020/12/10 03:39:15;;;;;;;;;39.67;38.00;;;;;11.34;77.53;100024.97;5041641;28;8834;-70
2020/12/10 03:41:41;;;;;;;;;38.33;37.33;;;;;11.26;77.87;100026.69;5042617;28;8942;-70
2020/12/10 03:44:08;;;;;;;;;41.33;37.67;;;;;11.14;78.28;100026.66;5042811;28;8830;-70
2020/12/10 03:46:34;;;;;;;;;43.00;38.00;;;;;10.99;78.94;100026.63;5041032;28;8841;-69
2020/12/10 03:49:01;;;;;;;;;41.67;36.33;;;;;10.98;78.71;100035.38;5043556;28;9566;-70
2020/12/10 03:51:27;;;;;;;;;39.33;35.00;;;;;10.95;79.37;100015.28;5040022;28;8841;-70
2020/12/10 03:53:54;;;;;;;;;38.00;36.67;;;;;11.05;79.01;100031.91;5040810;28;8833;-70
2020/12/10 03:56:20;;;;;;;;;39.00;38.00;;;;;10.97;79.53;100023.13;5042926;28;8834;-71
2020/12/10 03:58:46;;;;;;;;;37.00;33.67;;;;;10.98;79.41;100030.13;5041456;28;8975;-71
2020/12/10 04:01:12;;;;;;;;;39.33;34.00;;;;;11.04;78.66;100014.41;5041923;28;8928;-70
2020/12/10 04:03:42;;;;;;;;;34.33;34.33;;;;;11.08;79.21;100016.19;5042180;28;8903;-69
2020/12/10 04:06:09;;;;;;;;;37.67;31.33;;;;;11.31;77.91;100015.38;5023624;28;8872;-70
2020/12/10 04:08:35;;;;;;;;;29.67;29.67;;;;;11.30;78.22;100023.22;5042009;28;8924;-69
2020/12/10 04:11:01;;;;;;;;;35.67;29.00;;;;;11.35;77.69;100016.22;5040556;28;8857;-70
2020/12/10 04:13:28;;;;;;;;;38.00;34.33;;;;;11.41;77.55;100016.25;5043159;28;8842;-70
2020/12/10 04:15:54;;;;;;;;;33.00;29.33;;;;;11.37;77.00;100009.22;5040800;28;8918;-70
2020/12/10 04:18:20;;;;;;;;;31.00;30.00;;;;;11.31;77.71;100017.09;5042677;28;8850;-70
2020/12/10 04:20:47;;;;;;;;;30.00;27.00;;;;;11.37;76.76;100014.47;5040876;28;8850;-69
2020/12/10 04:23:14;;;;;;;;;36.33;31.33;;;;;11.27;77.24;100012.75;5041624;28;8934;-69
2020/12/10 04:25:40;;;;;;;;;31.00;30.00;;;;;11.30;77.39;100023.22;5041540;28;8966;-70
2020/12/10 04:28:06;;;;;;;;;34.33;32.33;;;;;11.40;77.38;100022.34;5040957;28;8925;-69
2020/12/10 04:30:32;;;;;;;;;31.33;28.67;;;;;11.35;77.73;100016.22;5042272;28;9582;-69
2020/12/10 04:32:59;;;;;;;;;31.67;30.00;;;;;11.42;77.34;100017.97;5039539;28;8832;-68
2020/12/10 04:35:25;;;;;;;;;30.00;28.00;;;;;11.54;76.87;100020.63;5042957;28;8830;-70
2020/12/10 04:37:52;;;;;;;;;30.67;30.67;;;;;11.54;77.44;100028.50;5039795;28;8817;-70
2020/12/10 04:40:19;;;;;;;;;34.00;30.33;;;;;11.54;77.17;100028.50;5041898;28;8987;-70
2020/12/10 04:42:47;;;;;;;;;34.33;29.67;;;;;11.58;76.38;100024.97;5040403;28;9889;-70
2020/12/10 04:45:13;;;;;;;;;34.00;29.33;;;;;11.58;77.35;100024.97;5041050;28;8859;-69
2020/12/10 04:47:41;;;;;;;;;36.00;34.00;;;;;11.60;76.36;100031.16;5041171;28;8854;-69
2020/12/10 04:50:18;;;;;;;;;35.00;33.67;;;;;11.53;76.54;100026.72;5040427;28;8828;-69
2020/12/10 04:52:44;;;;;;;;;34.33;33.00;;;;;11.67;76.42;100030.28;5040273;28;8857;-68
2020/12/10 04:55:14;;;;;;;;;38.67;30.00;;;;;11.61;76.17;100019.78;5040860;28;8829;-68
2020/12/10 04:57:43;;;;;;;;;30.67;30.67;;;;;11.57;76.51;100033.72;5041084;28;8854;-68
2020/12/10 05:00:13;;;;;;;;;35.00;34.00;;;;;11.49;77.19;100033.72;5040920;28;8915;-69
2020/12/10 05:02:39;;;;;;;;;41.33;37.67;;;;;11.49;76.68;100030.25;5040898;28;8843;-69
2020/12/10 05:05:21;;;;;;;;;35.33;34.67;;;;;11.53;77.55;100034.59;5040296;28;8829;-69
2020/12/10 05:07:47;;;;;;;;;42.00;33.33;;;;;11.53;76.62;100042.47;5039806;28;8947;-70
2020/12/10 05:10:16;;;;;;;;;31.00;29.00;;;;;11.50;76.04;100032.00;5040577;28;8841;-68
2020/12/10 05:12:44;;;;;;;;;32.00;29.00;;;;;11.60;76.35;100049.50;5038295;28;8868;-69
2020/12/10 05:15:10;;;;;;;;;33.67;29.33;;;;;11.69;75.77;100049.50;5040356;28;8831;-69
2020/12/10 05:17:36;;;;;;;;;30.00;30.00;;;;;11.65;76.29;100048.63;5040270;28;8876;-69
2020/12/10 05:20:05;;;;;;;;;35.00;30.67;;;;;11.62;76.10;100050.38;5040954;28;8919;-70
2020/12/10 05:22:32;;;;;;;;;38.67;32.33;;;;;11.52;76.63;100046.84;5038977;28;9007;-69
2020/12/10 05:25:01;;;;;;;;;40.33;34.00;;;;;11.35;77.24;100047.69;5042152;28;8815;-69
2020/12/10 05:27:32;;;;;;;;;31.00;29.33;;;;;11.46;76.63;100053.81;5020635;28;8872;-69
2020/12/10 05:30:00;;;;;;;;;31.67;29.00;;;;;11.43;76.40;100046.81;5023856;28;8847;-69
2020/12/10 05:32:40;;;;;;;;;36.33;33.00;;;;;11.36;77.29;100049.44;5038275;28;8907;-69
2020/12/10 05:35:23;;;;;;;;;35.33;30.00;;;;;11.47;76.62;100052.94;5035647;28;8926;-69
2020/12/10 05:37:52;;;;;;;;;39.33;35.00;;;;;11.40;77.10;100054.69;5038795;28;8836;-68
2020/12/10 05:40:19;;;;;;;;;37.00;33.00;;;;;11.38;77.41;100053.81;5040744;28;8904;-69
2020/12/10 05:42:47;;;;;;;;;34.67;34.33;;;;;11.51;77.12;100055.59;5039342;28;8931;-68
2020/12/10 05:45:17;;;;;;;;;37.33;35.67;;;;;11.45;76.80;100065.19;5040226;28;8851;-69
2020/12/10 05:47:48;;;;;;;;;32.00;29.33;;;;;11.40;77.56;100048.56;5039454;28;8842;-69
2020/12/10 05:50:16;;;;;;;;;33.00;29.33;;;;;11.36;76.91;100054.66;5040277;28;8887;-69
2020/12/10 05:55:41;;;;;;;;;30.33;28.00;;;;;11.45;77.22;100054.69;5033809;28;8856;-70
2020/12/10 05:58:08;;;;;;;;;33.33;33.00;;;;;11.18;78.03;100054.66;5039809;28;9579;-70
2020/12/10 06:00:37;;;;;;;;;32.33;26.00;;;;;11.47;77.01;100052.94;5039058;28;8828;-69
2020/12/10 06:03:06;;;;;;;;;30.67;29.00;;;;;11.49;77.35;100061.72;5040582;28;8857;-69
2020/12/10 06:05:32;;;;;;;;;38.33;30.33;;;;;11.63;76.76;100065.22;5038659;28;9631;-69
2020/12/10 06:08:00;;;;;;;;;29.00;27.67;;;;;11.61;76.42;100061.75;5041406;28;8826;-71
2020/12/10 06:10:26;;;;;;;;;31.00;29.33;;;;;11.73;76.33;100057.41;5037596;28;8844;-68
2020/12/10 06:12:53;;;;;;;;;36.00;33.00;;;;;11.48;76.58;100059.97;5034011;28;8833;-70
2020/12/10 06:15:24;;;;;;;;;32.33;29.00;;;;;11.30;77.48;100065.16;5041000;28;8854;-70
2020/12/10 06:18:08;;;;;;;;;30.33;28.00;;;;;11.38;78.42;100073.91;5038283;28;8837;-68
2020/12/10 06:20:39;;;;;;;;;34.00;30.33;;;;;11.53;77.73;100074.81;5034939;28;8843;-68
2020/12/10 06:23:37;;;;;;;;;30.33;26.33;;;;;11.60;77.23;100070.50;5040059;28;8842;-70
2020/12/10 06:26:35;;;;;;;;;24.00;23.67;;;;;11.64;76.23;100072.22;5034782;28;8883;-70
2020/12/10 06:29:19;;;;;;;;;27.00;25.00;;;;;11.73;75.92;100067.88;5034362;28;8864;-69
2020/12/10 06:32:10;;;;;;;;;31.67;28.33;;;;;11.66;76.25;100065.25;5042462;28;8835;-71
2020/12/10 06:37:26;;;;;;;;;27.33;25.00;;;;;11.73;76.39;100072.25;5040526;28;8833;-69
2020/12/10 06:39:55;;;;;;;;;28.67;26.33;;;;;11.74;75.89;100071.38;5037697;28;8914;-70
2020/12/10 06:42:21;;;;;;;;;27.33;25.33;;;;;11.72;75.81;100065.25;5037429;28;8864;-68
2020/12/10 06:47:41;;;;;;;;;27.33;25.00;;;;;11.42;77.71;100070.41;5042067;28;9310;-68
2020/12/10 06:50:25;;;;;;;;;28.00;27.00;;;;;11.22;77.85;100086.09;5041790;28;8880;-68
2020/12/10 06:53:11;;;;;;;;;36.33;33.33;;;;;11.25;78.30;100082.59;5034232;28;8817;-70
2020/12/10 06:56:05;;;;;;;;;24.00;22.00;;;;;11.32;77.67;100084.41;5042783;28;8868;-69
2020/12/10 06:58:57;;;;;;;;;26.67;24.00;;;;;11.38;76.78;100079.16;5039970;28;8866;-69
2020/12/10 07:01:31;;;;;;;;;28.00;24.00;;;;;11.12;77.78;100076.44;5035261;28;8979;-71
2020/12/10 07:04:16;;;;;;;;;26.00;26.00;;;;;11.49;76.94;100082.69;5034721;28;8848;-68
2020/12/10 07:06:43;;;;;;;;;27.67;25.67;;;;;11.52;77.33;100082.66;5040685;28;8863;-70
2020/12/10 07:09:13;;;;;;;;;19.33;19.33;;;;;11.68;75.91;100084.47;5041258;28;8836;-73
2020/12/10 07:12:17;;;;;;;;;29.67;27.00;;;;;11.77;76.37;100089.75;5041377;28;8847;-69
2020/12/10 07:14:47;;;;;;;;;29.00;27.00;;;;;11.86;75.62;100095.00;5038032;28;8852;-70
2020/12/10 07:17:14;;;;;;;;;29.00;25.00;;;;;11.85;76.08;100098.47;5040457;28;8873;-70
2020/12/10 07:19:40;;;;;;;;;30.67;26.00;;;;;11.85;76.51;100101.09;5041027;28;8836;-70
2020/12/10 07:22:07;;;;;;;;;26.33;25.33;;;;;11.81;76.07;100096.75;5040906;28;8862;-69
2020/12/10 07:24:33;;;;;;;;;26.33;26.33;;;;;11.66;76.74;100112.44;5040205;28;8841;-70
2020/12/10 07:27:00;;;;;;;;;24.67;24.67;;;;;11.85;76.01;100103.72;5041277;28;8850;-70
2020/12/10 07:29:26;;;;;;;;;26.33;23.67;;;;;11.91;75.98;100103.72;5038137;28;8934;-69
2020/12/10 07:34:41;;;;;;;;;34.00;30.00;;;;;11.91;76.40;100114.22;5040453;28;8897;-69
2020/12/10 07:39:49;;;;;;;;;25.33;23.00;;;;;11.89;76.03;100110.72;5040150;28;8839;-69
2020/12/10 07:42:19;;;;;;;;;28.33;26.33;;;;;12.06;75.90;100108.97;5037883;28;8913;-70
2020/12/10 07:44:45;;;;;;;;;34.67;30.67;;;;;12.06;75.85;100114.22;5038949;28;8807;-69
2020/12/10 07:47:12;;;;;;;;;31.00;26.00;;;;;12.00;76.18;100119.47;5040039;28;9695;-69
2020/12/10 07:49:39;;;;;;;;;32.67;28.33;;;;;12.08;75.31;100112.50;5040470;28;8870;-70
2020/12/10 07:52:10;;;;;;;;;28.33;28.33;;;;;12.21;74.97;100114.22;5039005;28;8915;-70
2020/12/10 07:54:50;;;;;;;;;31.00;30.00;;;;;11.83;75.97;100118.59;5038769;28;8853;-69
2020/12/10 07:57:27;;;;;;;;;34.00;31.00;;;;;12.08;75.70;100123.00;5037821;28;8865;-69
2020/12/10 07:59:58;;;;;;;;;30.67;26.00;;;;;11.76;76.23;100122.09;5036790;28;9086;-69
2020/12/10 08:02:47;;;;;;;;;31.00;31.00;;;;;11.73;76.94;100127.31;5035872;28;8900;-70
2020/12/10 08:05:17;;;;;;;;;36.67;31.67;;;;;11.60;76.96;100123.78;5031256;28;8855;-69
2020/12/10 08:07:48;;;;;;;;;28.00;27.67;;;;;11.59;76.91;100129.06;5040226;28;8862;-70
2020/12/10 08:10:25;;;;;;;;;30.33;27.67;;;;;11.83;77.04;100131.72;5039833;28;8807;-70
2020/12/10 08:13:11;;;;;;;;;35.00;31.67;;;;;11.93;76.05;100139.56;5038070;28;8933;-70
2020/12/10 08:15:37;;;;;;;;;40.67;34.33;;;;;11.69;77.37;100134.31;5039476;28;8889;-70
2020/12/10 08:18:04;;;;;;;;;36.67;32.00;;;;;12.15;75.75;100133.50;5038454;28;8845;-69
2020/12/10 08:20:47;;;;;;;;;39.33;34.67;;;;;12.25;74.95;100131.72;5037776;28;8861;-69
2020/12/10 08:23:42;;;;;;;;;28.33;26.33;;;;;12.08;75.68;100144.00;5037641;28;9750;-69
2020/12/10 08:26:10;;;;;;;;;32.00;28.00;;;;;11.98;75.78;100131.72;5038056;28;8856;-69
2020/12/10 08:28:39;;;;;;;;;26.67;25.67;;;;;11.85;76.87;100145.69;5039833;28;8861;-69
2020/12/10 08:31:06;;;;;;;;;27.33;24.00;;;;;11.76;77.06;100129.97;5040135;28;8860;-69
2020/12/10 08:33:36;;;;;;;;;30.67;24.67;;;;;11.79;77.25;100145.69;5040202;28;9012;-70
2020/12/10 08:36:03;;;;;;;;;26.00;26.00;;;;;11.96;76.62;100149.19;5038583;28;8865;-69
2020/12/10 08:38:31;;;;;;;;;26.00;23.33;;;;;12.18;76.58;100148.34;5040210;28;8850;-69
2020/12/10 08:46:45;;;;;;;;;25.00;23.33;;;;;12.41;74.92;100134.31;5035853;28;8890;-70
2020/12/10 08:49:18;;;;;;;;;11.00;10.00;;;;;12.51;74.75;100148.34;5020989;28;8843;-70
2020/12/10 08:51:46;;;;;;;;;26.33;24.33;;;;;12.57;74.16;100141.31;5040550;28;8901;-70
2020/12/10 08:57:00;;;;;;;;;19.00;18.67;;;;;12.86;73.28;100144.78;5036691;28;8892;-69
2020/12/10 08:59:27;;;;;;;;;23.67;18.00;;;;;13.13;72.10;100149.09;5039484;28;8938;-69
2020/12/10 09:04:35;;;;;;;;;21.33;18.00;;;;;13.30;71.52;100147.25;5039853;28;8851;-70
2020/12/10 09:09:51;;;;;;;;;22.67;21.33;;;;;13.03;72.31;100152.63;5038016;28;8896;-75
2020/12/10 09:17:42;;;;;;;;;23.00;23.00;;;;;12.76;72.67;100152.66;5040153;28;8845;-73
2020/12/10 09:20:08;;;;;;;;;24.67;20.33;;;;;12.74;73.54;100178.06;5040246;28;8839;-74
2020/12/10 20:16:59;;;;;;;;;9.50;8.00;;;;;12.63;68.49;100282.28;5112960;27;13195;-70
2020/12/10 20:19:26;;;;;;;;;7.25;6.75;;;;;12.66;67.32;100282.25;5091530;28;8855;-70
2020/12/10 20:21:53;;;;;;;;;9.50;9.00;;;;;12.96;66.96;100277.06;5090968;28;11490;-69
2020/12/10 20:24:19;;;;;;;;;7.00;7.00;;;;;12.91;66.78;100286.66;5096664;28;11499;-70
2020/12/10 20:26:46;;;;;;;;;7.75;6.75;;;;;13.01;66.69;100280.56;5098042;28;11577;-71
2020/12/10 20:29:18;;;;;;;;;6.00;6.00;;;;;12.81;66.80;100282.28;5098466;28;12352;-70
2020/12/10 20:31:44;;;;;;;;;3.25;3.25;;;;;13.10;64.76;100291.06;5094516;28;11511;-68
2020/12/10 20:34:13;;;;;;;;;6.50;3.75;;;;;13.21;64.65;100286.66;5092083;28;11588;-69
2020/12/10 20:36:40;;;;;;;;;3.50;3.00;;;;;13.23;64.11;100287.53;5095872;28;11565;-70
2020/12/10 20:39:09;;;;;;;;;2.75;2.75;;;;;13.21;64.82;100294.56;5095422;28;12263;-69
2020/12/10 20:41:36;;;;;;;;;4.00;2.00;;;;;13.16;64.22;100291.06;5065624;28;11518;-70
2020/12/10 20:44:04;;;;;;;;;2.00;2.00;;;;;13.10;63.95;100285.81;5043730;28;62240;-68
2020/12/10 20:46:32;;;;;;;;;2.00;2.00;;;;;13.27;63.67;100305.06;5045879;28;11519;-69
2020/12/10 20:48:58;;;;;;;;;2.00;2.00;;;;;13.16;63.63;100304.19;5046145;28;11702;-70
2020/12/10 20:51:25;;;;;;;;;4.00;4.00;;;;;13.02;63.65;100298.06;5045614;28;11507;-71
2020/12/10 20:53:51;;;;;;;;;7.00;5.50;;;;;13.11;64.36;100303.31;5045709;28;11506;-69
2020/12/10 20:56:18;;;;;;;;;9.50;7.00;;;;;13.15;64.58;100299.78;5045313;28;11588;-69
2020/12/10 20:58:44;;;;;;;;;10.25;10.25;;;;;13.14;64.83;100298.94;5045886;28;11573;-69
2020/12/10 21:01:10;;;;;;;;;14.00;14.00;;;;;13.13;65.42;100298.94;5045957;28;11606;-69
2020/12/10 21:03:36;;;;;;;;;21.00;17.50;;;;;13.09;66.57;100303.31;5044177;28;11631;-68
2020/12/10 21:06:03;;;;;;;;;25.00;23.00;;;;;13.00;67.32;100299.84;5045571;28;12367;-69
2020/12/10 21:08:30;;;;;;;;;21.50;18.50;;;;;12.94;68.10;100302.44;5045967;28;11578;-73
2020/12/10 21:10:56;;;;;;;;;24.25;19.50;;;;;12.90;67.64;100298.91;5045731;28;11556;-72
2020/12/10 21:13:22;;;;;;;;;18.50;16.75;;;;;12.88;67.79;100294.53;5046156;28;11558;-73
2020/12/10 21:15:49;;;;;;;;;23.33;20.67;;;;;12.90;68.10;100292.78;5044716;28;12306;-74
2020/12/10 21:18:15;;;;;;;;;24.33;23.00;;;;;12.77;68.27;100296.28;5040406;28;11573;-73
2020/12/10 21:20:42;;;;;;;;;23.00;21.00;;;;;12.85;67.71;100299.81;5044018;28;11589;-74
2020/12/10 21:23:08;;;;;;;;;24.25;21.75;;;;;12.90;68.16;100303.31;5045051;28;11599;-72
2020/12/10 21:25:36;;;;;;;;;22.00;21.67;;;;;12.91;67.77;100294.53;5045056;28;11672;-72
2020/12/10 21:28:02;;;;;;;;;19.25;19.00;;;;;12.90;68.45;100305.94;5034390;28;11564;-72
2020/12/10 21:30:28;;;;;;;;;18.67;18.67;;;;;12.81;68.33;100309.44;5032791;28;12390;-74
2020/12/10 21:32:55;;;;;;;;;20.67;19.67;;;;;12.88;68.06;100315.53;5032247;28;11655;-73
2020/12/10 21:35:21;;;;;;;;;25.00;20.00;;;;;12.92;68.00;100314.69;5031811;28;11567;-72
2020/12/10 21:37:47;;;;;;;;;26.75;21.00;;;;;12.82;68.09;100315.56;5031289;28;11647;-73
2020/12/10 21:40:13;;;;;;;;;19.00;19.00;;;;;12.89;68.60;100325.22;5027170;28;11542;-72
2020/12/10 21:42:40;;;;;;;;;19.00;18.00;;;;;12.88;68.16;100326.06;5030854;28;11700;-72
2020/12/10 21:45:07;;;;;;;;;18.75;15.00;;;;;12.81;68.57;100314.69;5030631;28;11633;-73
2020/12/10 21:47:33;;;;;;;;;23.25;19.25;;;;;12.84;68.88;100316.44;5030775;28;11657;-72
2020/12/10 21:49:59;;;;;;;;;20.00;18.25;;;;;12.88;68.50;100321.69;5031511;28;11578;-72
2020/12/10 21:52:25;;;;;;;;;23.00;20.50;;;;;13.02;68.44;100319.97;5031351;28;11555;-73
2020/12/10 21:54:52;;;;;;;;;19.25;19.00;;;;;12.87;69.33;100330.47;5019215;28;112347;-73
2020/12/10 21:57:18;;;;;;;;;19.75;16.50;;;;;12.74;69.65;100322.56;5031694;28;11563;-74
2020/12/10 21:59:48;;;;;;;;;23.75;23.00;;;;;12.79;69.97;100331.34;5017088;28;11619;-73
2020/12/10 22:02:15;;;;;;;;;18.25;18.25;;;;;12.39;71.13;100329.50;5008438;28;11701;-72
2020/12/10 22:04:41;;;;;;;;;20.75;20.25;;;;;12.33;72.02;100329.50;5011029;28;12340;-73
2020/12/10 22:07:07;;;;;;;;;23.00;20.00;;;;;12.19;71.88;100333.84;5011574;28;11669;-74
2020/12/10 22:09:33;;;;;;;;;26.50;19.25;;;;;12.15;72.30;100340.84;5011758;28;11590;-73
2020/12/10 22:12:03;;;;;;;;;23.25;21.50;;;;;12.15;72.21;100343.47;5011769;28;11624;-73
2020/12/10 22:14:31;;;;;;;;;20.25;17.00;;;;;12.00;72.50;100337.28;5011382;28;12381;-72
2020/12/10 22:16:59;;;;;;;;;19.67;17.67;;;;;12.26;71.84;100335.63;5011568;28;11611;-73
2020/12/10 22:19:26;;;;;;;;;21.67;18.33;;;;;12.32;71.58;100333.00;5011353;28;11675;-72
2020/12/10 22:21:53;;;;;;;;;22.67;20.33;;;;;12.26;71.62;100328.63;5011129;28;11615;-70
2020/12/10 22:24:19;;;;;;;;;20.00;18.67;;;;;12.57;71.40;100342.69;5011229;28;11587;-71
2020/12/10 22:26:45;;;;;;;;;22.50;20.25;;;;;12.56;70.69;100338.31;5011540;28;11596;-71
2020/12/10 22:29:12;;;;;;;;;26.00;24.67;;;;;12.39;70.76;100334.75;5011131;28;11598;-70
2020/12/10 22:31:38;;;;;;;;;18.75;17.50;;;;;12.34;71.24;100341.75;5010865;28;11691;-72
2020/12/10 22:34:05;;;;;;;;;19.00;19.00;;;;;12.23;71.18;100343.47;5011016;28;12330;-71
2020/12/10 22:36:31;;;;;;;;;22.75;19.00;;;;;12.23;70.68;100332.97;5008544;28;12401;-73
2020/12/10 22:38:58;;;;;;;;;23.50;18.25;;;;;12.24;70.72;100340.00;4975146;28;11551;-69
2020/12/10 22:41:24;;;;;;;;;18.75;17.00;;;;;12.24;71.34;100324.25;5008726;28;11592;-70
2020/12/10 22:43:53;;;;;;;;;18.75;18.00;;;;;12.21;71.01;100330.38;5011345;28;11761;-72
2020/12/10 22:46:21;;;;;;;;;17.50;17.00;;;;;12.12;70.98;100334.69;4990668;28;11530;-70
2020/12/10 22:48:48;;;;;;;;;25.00;21.33;;;;;12.17;71.90;100338.19;5029312;28;11558;-70
2020/12/10 22:51:16;;;;;;;;;25.00;20.00;;;;;12.07;71.68;100324.19;5026873;28;11617;-71